Time;durP1;ratioP1;P1;durP2;ratioP2;P2;SDS_P1;SDS_P2;PMS_P1;PMS_P2;Temp;Humidity;BMP_temperature;BMP_pressure;BME280_temperature;BME280_humidity;BME280_pressure;Samples;Min_cycle;Max_cycle;Signal;HPM_P1;HPM_P2
2023/07/18 07:00:23;;;;;;;5.28;2.38;;;24.10;60.90;;;;;;7275797;19;19998;-77
2023/07/18 07:02:52;;;;;;;10.13;1.97;;;24.00;61.90;;;;;;7384395;19;20246;-77
2023/07/18 07:05:21;;;;;;;7.20;1.90;;;24.10;60.80;;;;;;7381817;19;20018;-76
2023/07/18 07:07:49;;;;;;;8.38;2.00;;;24.10;61.00;;;;;;7406943;19;20011;-80
2023/07/18 07:10:18;;;;;;;5.82;1.85;;;24.00;60.90;;;;;;7384007;19;20378;-74
2023/07/18 07:12:47;;;;;;;4.97;1.90;;;24.00;61.10;;;;;;7379504;19;20010;-73
2023/07/18 07:15:16;;;;;;;4.00;1.58;;;24.10;60.90;;;;;;7381052;19;20018;-75
2023/07/18 07:17:51;;;;;;;8.95;1.77;;;24.10;60.60;;;;;;7379356;19;20265;-78
2023/07/18 07:20:24;;;;;;;12.05;1.92;;;24.10;61.10;;;;;;7392699;19;20243;-76
2023/07/18 07:22:53;;;;;;;9.80;2.08;;;24.20;61.40;;;;;;7407003;19;20014;-76
2023/07/18 07:25:22;;;;;;;7.68;1.75;;;24.20;61.60;;;;;;7387275;19;20006;-74
2023/07/18 07:27:50;;;;;;;7.43;1.77;;;24.20;61.10;;;;;;7389548;19;20015;-76
2023/07/18 07:30:20;;;;;;;7.72;2.00;;;24.30;60.70;;;;;;7383173;19;20006;-75
2023/07/18 07:32:53;;;;;;;5.63;1.90;;;24.40;61.00;;;;;;7391173;19;20063;-76
2023/07/18 07:35:23;;;;;;;11.90;2.08;;;24.40;60.90;;;;;;7389733;19;20066;-76
2023/07/18 07:37:55;;;;;;;8.48;1.80;;;24.50;60.40;;;;;;7415036;19;20058;-80
2023/07/18 07:40:23;;;;;;;6.10;1.98;;;24.50;60.20;;;;;;7388703;19;19999;-77
2023/07/18 07:42:52;;;;;;;5.72;2.10;;;24.60;60.00;;;;;;7385496;19;20025;-75
2023/07/18 07:45:21;;;;;;;9.90;1.90;;;24.70;59.60;;;;;;7385014;19;20007;-75
2023/07/18 07:47:53;;;;;;;8.82;1.90;;;24.80;59.40;;;;;;7386486;19;20081;-77
2023/07/18 07:50:22;;;;;;;11.65;1.70;;;24.80;59.30;;;;;;7387406;19;20227;-78
2023/07/18 07:52:51;;;;;;;7.10;2.13;;;24.90;59.30;;;;;;7410191;19;20014;-76
2023/07/18 07:55:20;;;;;;;8.00;2.30;;;24.80;59.30;;;;;;7385257;19;20003;-77
2023/07/18 07:57:50;;;;;;;6.95;1.80;;;24.80;59.60;;;;;;7387786;19;20039;-78
2023/07/18 08:00:19;;;;;;;6.50;1.98;;;24.80;59.60;;;;;;7390253;19;20240;-76
2023/07/18 08:02:48;;;;;;;10.05;2.33;;;24.70;59.60;;;;;;7387111;19;20351;-78
2023/07/18 08:05:20;;;;;;;9.25;2.22;;;24.60;59.40;;;;;;7408668;19;20006;-77
2023/07/18 08:08:01;;;;;;;9.13;2.08;;;24.40;59.80;;;;;;7389304;19;20589;-79
2023/07/18 08:10:30;;;;;;;11.43;2.15;;;24.30;60.30;;;;;;7386031;19;20027;-78
2023/07/18 08:12:59;;;;;;;14.63;2.28;;;24.20;60.70;;;;;;7385581;19;19999;-77
2023/07/18 08:15:28;;;;;;;6.97;2.30;;;24.20;61.20;;;;;;7389143;19;20027;-78
2023/07/18 08:17:57;;;;;;;15.45;1.92;;;24.10;61.30;;;;;;7388190;19;20050;-76
2023/07/18 08:20:29;;;;;;;7.18;2.35;;;24.10;61.30;;;;;;7388067;19;20070;-75
2023/07/18 08:22:58;;;;;;;14.70;2.30;;;24.10;61.30;;;;;;7406715;19;20011;-76
2023/07/18 08:25:26;;;;;;;13.40;2.55;;;24.10;61.40;;;;;;7382985;19;20282;-75
2023/07/18 08:27:56;;;;;;;14.13;2.53;;;24.10;61.50;;;;;;7383507;19;20141;-73
2023/07/18 08:30:25;;;;;;;10.82;2.33;;;24.20;61.60;;;;;;7383191;19;20071;-75
2023/07/18 08:32:54;;;;;;;7.20;2.78;;;24.20;61.50;;;;;;7384884;19;19999;-77
2023/07/18 08:35:23;;;;;;;10.27;2.55;;;24.30;61.10;;;;;;7384587;19;20010;-77
2023/07/18 08:38:04;;;;;;;13.95;2.28;;;24.30;61.00;;;;;;7407586;19;20014;-82
2023/07/18 08:40:43;;;;;;;17.58;2.40;;;24.30;60.60;;;;;;7388410;19;20015;-83
2023/07/18 08:43:18;;;;;;;10.05;2.33;;;24.40;60.50;;;;;;7390426;19;20027;-82
2023/07/18 08:45:58;;;;;;;11.38;2.95;;;24.40;60.70;;;;;;7393506;19;20024;-84
2023/07/18 08:48:27;;;;;;;18.75;2.58;;;24.50;60.40;;;;;;7389080;19;20235;-77
2023/07/18 08:51:07;;;;;;;10.82;2.40;;;24.50;60.10;;;;;;7389215;19;20013;-77
2023/07/18 08:53:38;;;;;;;12.95;2.67;;;24.60;60.20;;;;;;7384341;19;20140;-75
2023/07/18 08:56:08;;;;;;;;;;;24.60;60.30;;;;;;7404822;19;20016;-79
2023/07/18 08:58:39;;;;;;;12.18;2.38;;;24.70;60.50;;;;;;7383599;19;20188;-76
2023/07/18 09:01:08;;;;;;;12.38;2.40;;;24.70;60.30;;;;;;7382458;19;20049;-77
2023/07/18 09:03:39;;;;;;;12.77;2.50;;;24.80;60.10;;;;;;7384741;19;20003;-77
2023/07/18 09:06:19;;;;;;;10.32;2.45;;;24.80;59.80;;;;;;7386440;19;20037;-76
2023/07/18 09:08:59;;;;;;;8.85;2.22;;;24.80;59.70;;;;;;7385869;19;20354;-77
2023/07/18 09:11:29;;;;;;;8.90;1.92;;;24.80;59.60;;;;;;7398525;19;20015;-76
2023/07/18 09:13:58;;;;;;;8.93;2.47;;;24.90;59.30;;;;;;7419813;19;20028;-76
2023/07/18 09:16:34;;;;;;;7.07;1.83;;;24.80;59.70;;;;;;7387603;19;20017;-80
2023/07/18 09:19:05;;;;;;;8.25;2.35;;;24.80;59.10;;;;;;7384374;19;20215;-78
2023/07/18 09:21:35;;;;;;;5.88;2.13;;;24.90;59.50;;;;;;7384969;19;20058;-77
2023/07/18 09:24:07;;;;;;;9.70;1.80;;;24.90;59.50;;;;;;7385808;19;20241;-78
2023/07/18 09:26:35;;;;;;;30.30;4.25;;;24.90;59.80;;;;;;7384522;19;20014;-76
2023/07/18 09:29:17;;;;;;;5.38;1.83;;;24.90;59.10;;;;;;7407580;19;20006;-79
2023/07/18 09:31:47;;;;;;;;;;;24.90;59.10;;;;;;7383859;19;20006;-77
2023/07/18 09:34:18;;;;;;;14.45;2.15;;;25.00;59.20;;;;;;7387666;19;19907;-78
2023/07/18 09:37:06;;;;;;;11.65;2.13;;;25.00;59.00;;;;;;7386147;19;20028;-87
2023/07/18 09:39:39;;;;;;;10.18;2.22;;;25.00;59.00;;;;;;7383627;19;20003;-79
2023/07/18 09:42:48;;;;;;;10.25;2.47;;;25.10;58.50;;;;;;7381983;19;20089;-86
2023/07/18 09:45:20;;;;;;;16.90;1.98;;;25.10;58.50;;;;;;7383299;19;20210;-82
2023/07/18 09:48:09;;;;;;;6.22;1.90;;;25.10;58.20;;;;;;7382250;19;20006;-81
2023/07/18 09:50:40;;;;;;;10.00;2.15;;;25.00;58.50;;;;;;7383507;19;20283;-78
2023/07/18 09:53:12;;;;;;;3.42;1.88;;;25.10;58.80;;;;;;7405061;19;20002;-76
2023/07/18 09:55:45;;;;;;;5.20;1.92;;;25.10;59.00;;;;;;7380869;19;20010;-75
2023/07/18 09:58:16;;;;;;;5.53;1.88;;;25.10;58.60;;;;;;7379841;19;20082;-75
2023/07/18 10:00:46;;;;;;;4.38;1.90;;;25.10;58.70;;;;;;7380050;19;20007;-76
2023/07/18 10:03:15;;;;;;;6.22;2.05;;;25.30;57.90;;;;;;7379490;19;20023;-76
2023/07/18 10:05:45;;;;;;;4.85;1.67;;;25.20;57.60;;;;;;7380286;19;20036;-75
2023/07/18 10:08:14;;;;;;;7.30;2.05;;;25.30;57.40;;;;;;7402337;19;20011;-76
2023/07/18 10:11:02;;;;;;;8.25;1.95;;;25.40;57.40;;;;;;7379494;19;20013;-74
2023/07/18 10:13:32;;;;;;;8.70;2.10;;;25.50;57.30;;;;;;7380083;19;20007;-74
2023/07/18 10:16:27;;;;;;;3.72;1.60;;;25.50;57.50;;;;;;7386406;19;20002;-78
2023/07/18 10:18:56;;;;;;;4.53;1.88;;;25.50;57.80;;;;;;7389310;19;20382;-77
2023/07/18 10:21:36;;;;;;;9.57;1.80;;;25.50;57.40;;;;;;7386126;19;20007;-80
2023/07/18 10:24:38;;;;;;;6.22;1.52;;;25.70;57.40;;;;;;7382309;19;20007;-86
2023/07/18 10:27:13;;;;;;;3.55;1.77;;;25.70;57.10;;;;;;7381323;19;20011;-77
2023/07/18 10:29:43;;;;;;;9.43;2.03;;;25.80;57.10;;;;;;7381218;19;20007;-77
2023/07/18 10:32:32;;;;;;;5.68;1.92;;;25.80;57.30;;;;;;7403960;19;20007;-77
2023/07/18 10:35:08;;;;;;;4.32;1.90;;;25.90;57.30;;;;;;7384477;19;20020;-80
2023/07/18 10:37:48;;;;;;;8.23;1.73;;;25.90;57.70;;;;;;7384300;19;20014;-82
2023/07/18 10:40:35;;;;;;;8.18;1.98;;;26.00;57.00;;;;;;7383581;19;20070;-80
2023/07/18 10:43:08;;;;;;;5.85;1.52;;;26.00;56.70;;;;;;7380279;19;20006;-77
2023/07/18 10:45:40;;;;;;;6.03;1.38;;;26.10;56.50;;;;;;7379340;19;20074;-74
2023/07/18 10:48:15;;;;;;;4.15;1.90;;;26.20;57.00;;;;;;7380970;19;20020;-77
2023/07/18 10:50:44;;;;;;;10.68;2.05;;;26.20;57.00;;;;;;7380260;19;19999;-76
2023/07/18 10:53:20;;;;;;;4.93;2.20;;;26.30;57.00;;;;;;7407347;19;20017;-82
2023/07/18 10:56:00;;;;;;;3.90;1.80;;;26.40;56.60;;;;;;7398820;19;20022;-80
2023/07/18 10:58:31;;;;;;;5.15;1.80;;;26.40;55.80;;;;;;7391943;19;20031;-80
2023/07/18 11:01:00;;;;;;;7.20;1.70;;;26.50;55.00;;;;;;7387118;19;20014;-77
2023/07/18 11:03:35;;;;;;;5.15;1.70;;;26.50;54.90;;;;;;7387354;19;20015;-76
2023/07/18 11:06:07;;;;;;;8.57;1.92;;;26.60;55.00;;;;;;7386878;19;20007;-77
2023/07/18 11:08:37;;;;;;;15.27;2.25;;;26.60;55.40;;;;;;7384579;19;20421;-77
2023/07/18 11:11:07;;;;;;;7.05;1.88;;;26.70;55.60;;;;;;7409659;19;20218;-77
2023/07/18 11:13:42;;;;;;;5.55;1.83;;;26.70;55.60;;;;;;7386312;19;20002;-77
2023/07/18 11:16:12;;;;;;;5.07;2.25;;;26.80;55.40;;;;;;7385397;19;20003;-77
2023/07/18 11:18:50;;;;;;;4.03;1.67;;;26.80;54.70;;;;;;7388708;19;20016;-79
2023/07/18 11:21:23;;;;;;;6.07;1.67;;;26.80;54.50;;;;;;7386426;19;20010;-75
2023/07/18 11:23:52;;;;;;;10.65;2.15;;;26.90;54.60;;;;;;7388607;19;20011;-76
2023/07/18 11:26:21;;;;;;;9.50;2.13;;;27.00;54.70;;;;;;7395829;19;20017;-76
2023/07/18 11:28:56;;;;;;;9.30;1.80;;;27.10;54.10;;;;;;7411843;19;20007;-76
2023/07/18 11:31:58;;;;;;;12.35;1.88;;;27.10;53.90;;;;;;7391945;19;20029;-81
2023/07/18 11:34:28;;;;;;;11.73;2.28;;;27.10;54.10;;;;;;7387164;19;20074;-72
2023/07/18 11:36:56;;;;;;;6.70;2.22;;;27.10;54.30;;;;;;7387431;19;20007;-76
2023/07/18 11:39:26;;;;;;;5.97;1.85;;;27.20;54.30;;;;;;7390494;19;20007;-75
2023/07/18 11:42:08;;;;;;;3.63;1.55;;;27.20;53.40;;;;;;7387451;19;20339;-77
2023/07/18 11:44:45;;;;;;;6.28;1.77;;;27.30;52.20;;;;;;7387894;19;20036;-76
2023/07/18 11:47:14;;;;;;;2.38;1.90;;;27.50;52.10;;;;;;7410266;19;20010;-77
2023/07/18 11:49:46;;;;;;;9.80;2.28;;;27.50;52.60;;;;;;7384817;19;20011;-76
2023/07/18 11:52:15;;;;;;;3.30;1.92;;;27.50;53.60;;;;;;7385463;19;20002;-77
2023/07/18 11:54:43;;;;;;;7.43;2.30;;;27.60;53.90;;;;;;7384711;19;20325;-77
2023/07/18 11:57:12;;;;;;;3.58;1.63;;;27.60;53.00;;;;;;7383273;19;19998;-76
2023/07/18 11:59:43;;;;;;;5.05;2.08;;;27.70;53.40;;;;;;7383541;19;20015;-76
2023/07/18 12:02:12;;;;;;;6.05;1.90;;;27.70;53.90;;;;;;7406420;19;20027;-76
2023/07/18 12:04:41;;;;;;;3.40;1.42;;;27.80;53.30;;;;;;7382777;19;20028;-77
2023/07/18 12:07:10;;;;;;;4.50;1.90;;;27.80;52.80;;;;;;7387193;19;20003;-77
2023/07/18 12:09:38;;;;;;;4.32;1.92;;;27.90;53.30;;;;;;7388064;19;20007;-77
2023/07/18 12:12:08;;;;;;;9.55;1.75;;;28.00;52.90;;;;;;7387265;19;20010;-77
2023/07/18 12:14:37;;;;;;;6.47;1.90;;;28.00;52.70;;;;;;7384351;19;20363;-77
2023/07/18 12:17:08;;;;;;;8.98;1.98;;;28.10;52.50;;;;;;7405228;19;20023;-77
2023/07/18 12:19:37;;;;;;;4.22;1.60;;;28.20;52.00;;;;;;7383544;19;20013;-77
2023/07/18 12:22:06;;;;;;;6.72;1.98;;;28.10;52.10;;;;;;7383114;19;20390;-76
2023/07/18 12:24:40;;;;;;;5.13;1.63;;;28.20;52.60;;;;;;7383573;19;20035;-80
2023/07/18 12:27:12;;;;;;;12.27;1.83;;;28.30;52.30;;;;;;7386308;19;20019;-80
2023/07/18 12:29:42;;;;;;;3.97;1.75;;;28.30;51.70;;;;;;7387033;19;20018;-79
2023/07/18 12:32:14;;;;;;;9.57;1.80;;;28.30;52.10;;;;;;7409420;19;20024;-79
2023/07/18 12:34:44;;;;;;;11.57;2.10;;;28.40;52.20;;;;;;7388731;19;20013;-79
2023/07/18 12:37:12;;;;;;;4.13;2.17;;;28.40;52.40;;;;;;7388956;19;20023;-79
2023/07/18 12:39:59;;;;;;;8.05;2.30;;;28.50;51.90;;;;;;7388619;19;20056;-85
2023/07/18 12:42:28;;;;;;;4.68;1.90;;;28.60;51.80;;;;;;7384134;19;20370;-79
2023/07/18 12:44:56;;;;;;;9.45;1.92;;;28.60;51.40;;;;;;7382271;19;20006;-75
2023/07/18 12:47:28;;;;;;;9.90;2.38;;;28.70;51.70;;;;;;7406455;19;20015;-78
2023/07/18 12:52:41;;;;;;;7.07;1.83;;;28.90;51.20;;;;;;7389893;19;20007;-78
2023/07/18 12:55:19;;;;;;;5.55;1.83;;;28.90;51.10;;;;;;7388743;19;20007;-76
2023/07/18 12:57:50;;;;;;;6.75;1.80;;;29.00;50.30;;;;;;7389365;19;20237;-78
2023/07/18 13:00:20;;;;;;;6.28;1.63;;;29.00;50.40;;;;;;7399527;19;20010;-77
2023/07/18 13:02:51;;;;;;;4.97;1.73;;;29.10;51.00;;;;;;7391008;19;20393;-81
2023/07/18 13:08:25;;;;;;;3.47;1.88;;;29.20;51.10;;;;;;7277360;19;2004654;-77
2023/07/18 13:11:08;;;;;;;12.55;2.30;;;29.30;50.80;;;;;;7404151;19;20062;-80
2023/07/18 13:14:12;;;;;;;10.73;2.05;;;29.40;50.80;;;;;;7381379;19;20431;-83
2023/07/18 13:16:41;;;;;;;6.50;2.15;;;29.30;50.60;;;;;;7378910;19;20020;-78
2023/07/18 13:19:12;;;;;;;15.02;2.00;;;29.30;50.90;;;;;;7380445;19;20066;-78
2023/07/18 13:21:41;;;;;;;8.55;1.90;;;29.30;50.60;;;;;;7380903;19;20012;-80
2023/07/18 13:24:11;;;;;;;4.60;1.65;;;29.20;50.40;;;;;;7381808;19;20014;-77
2023/07/18 13:26:40;;;;;;;7.13;1.95;;;29.20;50.60;;;;;;7381861;19;20003;-81
2023/07/18 13:29:15;;;;;;;4.57;2.13;;;29.30;50.20;;;;;;7401832;19;20011;-80
2023/07/18 13:31:44;;;;;;;8.05;2.22;;;29.20;50.30;;;;;;7387807;19;20007;-79
2023/07/18 13:34:17;;;;;;;7.15;2.00;;;29.20;50.80;;;;;;7380786;19;20016;-77
2023/07/18 13:36:54;;;;;;;7.43;2.05;;;29.30;50.90;;;;;;7387325;19;20027;-81
2023/07/18 13:39:23;;;;;;;7.35;2.33;;;29.30;50.20;;;;;;7389558;19;20007;-76
2023/07/18 13:41:57;;;;;;;6.03;1.80;;;29.30;50.80;;;;;;7389236;19;20035;-80
2023/07/18 13:44:31;;;;;;;3.58;1.70;;;29.40;50.30;;;;;;7387115;19;20002;-77
2023/07/18 13:47:02;;;;;;;10.82;2.00;;;29.40;50.10;;;;;;7406624;19;20036;-81
2023/07/18 13:49:33;;;;;;;5.57;1.98;;;29.40;50.40;;;;;;7388135;19;20010;-76
2023/07/18 13:52:31;;;;;;;8.80;1.98;;;29.50;50.20;;;;;;7385454;19;20007;-81
2023/07/18 13:55:27;;;;;;;7.00;1.75;;;29.50;50.10;;;;;;7387098;19;20019;-86
2023/07/18 13:57:57;;;;;;;10.38;2.05;;;29.70;49.50;;;;;;7386644;19;20010;-75
2023/07/18 14:00:26;;;;;;;6.70;2.07;;;29.80;49.90;;;;;;7384320;19;20006;-75
2023/07/18 14:02:55;;;;;;;12.95;2.22;;;29.90;50.40;;;;;;7384397;19;20248;-76
2023/07/18 14:05:26;;;;;;;6.50;2.35;;;30.00;49.80;;;;;;7379270;19;20019;-78
2023/07/18 14:07:58;;;;;;;10.10;1.92;;;30.00;49.20;;;;;;7403171;19;20017;-81
2023/07/18 14:10:27;;;;;;;5.70;1.98;;;30.10;49.10;;;;;;7382387;19;20058;-81
2023/07/18 14:13:00;;;;;;;15.00;2.53;;;30.20;49.00;;;;;;7380163;19;20394;-77
2023/07/18 14:15:29;;;;;;;8.98;2.13;;;30.20;48.90;;;;;;7381024;19;20044;-78
2023/07/18 14:17:58;;;;;;;5.78;2.05;;;30.20;49.40;;;;;;7381476;19;20010;-79
2023/07/18 14:20:30;;;;;;;9.10;2.88;;;30.20;49.30;;;;;;7379934;19;20007;-78
2023/07/18 14:22:58;;;;;;;10.82;2.58;;;30.20;50.10;;;;;;7404920;19;20032;-78
2023/07/18 14:25:28;;;;;;;11.68;2.47;;;30.30;49.90;;;;;;7381404;19;20006;-74
2023/07/18 14:28:00;;;;;;;7.78;2.30;;;30.40;49.70;;;;;;7386984;19;20013;-81
2023/07/18 14:30:29;;;;;;;5.07;2.13;;;30.50;50.10;;;;;;7392336;19;20032;-78
2023/07/18 14:32:59;;;;;;;10.80;2.22;;;30.50;48.90;;;;;;7391276;19;20011;-78
2023/07/18 14:35:30;;;;;;;27.05;3.60;;;30.60;49.30;;;;;;7390231;19;20023;-76
2023/07/18 14:38:03;;;;;;;13.27;2.40;;;30.60;49.30;;;;;;7420775;19;20223;-81
2023/07/18 14:40:32;;;;;;;7.50;2.03;;;30.70;49.30;;;;;;7391852;19;20119;-76
2023/07/18 14:43:03;;;;;;;11.02;2.17;;;30.70;48.80;;;;;;7392623;19;20002;-76
2023/07/18 14:45:34;;;;;;;8.68;2.25;;;30.70;48.10;;;;;;7393352;19;20027;-78
2023/07/18 14:48:04;;;;;;;;;;;30.70;48.00;;;;;;7393710;19;20006;-82
2023/07/18 14:50:35;;;;;;;4.53;2.20;;;30.70;47.80;;;;;;7392664;19;20207;-77
2023/07/18 14:53:04;;;;;;;7.28;2.40;;;30.70;47.70;;;;;;7414352;19;20035;-76
2023/07/18 14:55:35;;;;;;;8.82;2.55;;;30.70;48.20;;;;;;7387764;19;20078;-80
2023/07/18 14:58:14;;;;;;;7.07;2.05;;;30.70;47.70;;;;;;7391776;19;20394;-82
2023/07/18 15:00:44;;;;;;;10.88;2.53;;;30.80;47.80;;;;;;7386591;19;20029;-74
2023/07/18 15:03:13;;;;;;;7.65;2.20;;;30.70;47.60;;;;;;7389670;19;20011;-78
2023/07/18 15:05:47;;;;;;;6.88;2.17;;;30.70;48.00;;;;;;7389183;19;20011;-76
2023/07/18 15:08:16;;;;;;;5.70;2.05;;;30.70;48.40;;;;;;7413107;19;20024;-76
2023/07/18 15:10:47;;;;;;;9.45;2.33;;;30.70;47.80;;;;;;7391210;19;20006;-78
2023/07/18 15:13:16;;;;;;;5.82;2.45;;;30.70;48.60;;;;;;7396206;19;20003;-79
2023/07/18 15:15:59;;;;;;;9.65;2.78;;;30.90;47.80;;;;;;7391517;19;20003;-76
2023/07/18 15:18:31;;;;;;;10.90;2.25;;;30.90;48.20;;;;;;7390593;19;20010;-78
2023/07/18 15:21:09;;;;;;;15.73;3.13;;;31.00;47.50;;;;;;7386524;19;20007;-77
2023/07/18 15:23:44;;;;;;;11.45;2.42;;;31.10;47.60;;;;;;7389056;19;20010;-78
2023/07/18 15:26:16;;;;;;;7.15;2.33;;;31.10;47.70;;;;;;7410248;19;20003;-77
2023/07/18 15:28:45;;;;;;;8.90;2.08;;;31.10;47.90;;;;;;7386841;19;20062;-72
2023/07/18 15:31:14;;;;;;;6.00;2.30;;;31.10;48.00;;;;;;7387255;19;20020;-75
2023/07/18 15:33:43;;;;;;;4.78;1.90;;;31.10;48.10;;;;;;7385190;19;20098;-76
2023/07/18 15:36:15;;;;;;;11.52;2.38;;;31.10;48.50;;;;;;7385243;19;19999;-75
2023/07/18 15:38:43;;;;;;;12.65;3.38;;;31.10;48.40;;;;;;7381914;19;20013;-77
2023/07/18 15:41:12;;;;;;;8.07;2.35;;;31.20;47.40;;;;;;7406873;19;20007;-77
2023/07/18 15:43:44;;;;;;;4.60;2.00;;;31.30;47.40;;;;;;7384639;19;20395;-78
2023/07/18 15:46:13;;;;;;;6.53;2.13;;;31.40;47.30;;;;;;7384908;19;20007;-73
2023/07/18 15:48:44;;;;;;;9.40;2.05;;;31.30;47.80;;;;;;7397335;19;20007;-77
2023/07/18 15:51:15;;;;;;;4.72;2.30;;;31.30;47.60;;;;;;7389738;19;20014;-74
2023/07/18 15:53:44;;;;;;;6.10;2.25;;;31.30;48.10;;;;;;7385955;19;20003;-76
2023/07/18 15:56:15;;;;;;;7.15;2.20;;;31.30;48.30;;;;;;7404266;19;20298;-76
2023/07/18 15:58:44;;;;;;;5.78;2.00;;;31.50;47.60;;;;;;7384459;19;20009;-75
2023/07/18 16:01:12;;;;;;;7.13;2.45;;;31.80;47.30;;;;;;7383723;19;20388;-74
2023/07/18 16:03:41;;;;;;;6.30;2.10;;;32.30;46.20;;;;;;7385087;19;20006;-75
2023/07/18 16:06:10;;;;;;;12.27;2.70;;;32.50;45.70;;;;;;7384055;19;20006;-81
2023/07/18 16:08:44;;;;;;;6.75;1.70;;;32.50;45.60;;;;;;7383543;19;20438;-75
2023/07/18 16:11:13;;;;;;;6.65;2.10;;;32.60;45.60;;;;;;7405635;19;20006;-76
2023/07/18 16:13:43;;;;;;;6.18;3.15;;;32.90;45.80;;;;;;7383851;19;20039;-75
2023/07/18 16:16:12;;;;;;;10.33;2.63;;;33.50;45.50;;;;;;7383883;19;20007;-76
2023/07/18 16:18:53;;;;;;;11.30;2.65;;;33.90;44.70;;;;;;7384763;19;20300;-75
2023/07/18 16:21:22;;;;;;;7.07;2.40;;;34.40;44.40;;;;;;7383736;19;20003;-75
2023/07/18 16:25:09;;;;;;;5.00;2.20;;;35.00;43.40;;;;;;7410230;19;20047;-84
2023/07/18 16:27:41;;;;;;;6.38;1.92;;;35.80;42.40;;;;;;7383929;19;20010;-74
2023/07/18 16:30:11;;;;;;;7.63;2.13;;;36.60;41.90;;;;;;7381612;19;20010;-77
2023/07/18 16:32:40;;;;;;;7.18;2.20;;;37.20;40.90;;;;;;7381772;19;20013;-76
2023/07/18 16:35:10;;;;;;;4.75;2.30;;;37.50;40.00;;;;;;7403407;19;20011;-76
2023/07/18 16:37:38;;;;;;;5.10;1.88;;;37.60;40.00;;;;;;7380722;19;20011;-73
2023/07/18 16:40:09;;;;;;;7.28;2.05;;;37.70;39.70;;;;;;7380591;19;20006;-72
2023/07/18 16:42:37;;;;;;;8.27;2.10;;;37.60;39.60;;;;;;7381058;19;20006;-74
2023/07/18 16:45:10;;;;;;;13.18;2.10;;;37.40;39.90;;;;;;7381649;19;20003;-74
2023/07/18 16:47:39;;;;;;;11.43;2.15;;;37.10;39.80;;;;;;7381359;19;20016;-75
2023/07/18 16:50:09;;;;;;;3.75;1.98;;;36.50;41.10;;;;;;7404252;19;20398;-72
2023/07/18 16:52:38;;;;;;;8.10;1.98;;;35.70;41.10;;;;;;7382021;19;20003;-72
2023/07/18 16:55:08;;;;;;;6.97;2.17;;;35.00;41.60;;;;;;7382160;19;20027;-72
2023/07/18 16:57:37;;;;;;;4.10;2.40;;;34.40;43.00;;;;;;7384335;19;20018;-72
2023/07/18 17:00:09;;;;;;;6.18;2.40;;;34.30;43.70;;;;;;7382887;19;20018;-73
2023/07/18 17:02:38;;;;;;;8.52;2.50;;;34.80;43.80;;;;;;7387406;19;20007;-72
2023/07/18 17:05:07;;;;;;;25.83;3.95;;;35.50;42.10;;;;;;7409220;19;20007;-72
2023/07/18 17:07:37;;;;;;;9.50;2.33;;;36.40;41.80;;;;;;7386334;19;20007;-72
2023/07/18 17:10:06;;;;;;;11.75;2.72;;;37.40;40.30;;;;;;7383500;19;20049;-72
2023/07/18 17:12:35;;;;;;;5.85;2.05;;;38.40;39.50;;;;;;7383138;19;20254;-73
2023/07/18 17:15:05;;;;;;;5.30;1.83;;;39.20;38.90;;;;;;7384266;19;20006;-73
2023/07/18 17:17:36;;;;;;;;;;;39.90;38.30;;;;;;7384829;19;20417;-72
2023/07/18 17:20:06;;;;;;;7.60;2.15;;;40.50;37.50;;;;;;7404586;19;19906;-73
2023/07/18 17:22:35;;;;;;;10.70;2.10;;;41.10;36.90;;;;;;7384059;19;20007;-73
2023/07/18 17:25:04;;;;;;;4.32;1.75;;;41.40;36.00;;;;;;7382945;19;20310;-74
2023/07/18 17:27:33;;;;;;;7.43;1.80;;;41.40;35.70;;;;;;7384649;19;20002;-72
2023/07/18 17:30:04;;;;;;;8.48;2.25;;;41.60;35.70;;;;;;7382811;19;20001;-72
2023/07/18 17:32:33;;;;;;;10.85;2.00;;;41.80;35.80;;;;;;7383729;19;20014;-71
2023/07/18 17:35:04;;;;;;;5.03;1.90;;;42.00;35.20;;;;;;7403069;19;20006;-72
2023/07/18 17:37:33;;;;;;;3.08;1.83;;;42.20;35.00;;;;;;7381401;19;20026;-72
2023/07/18 17:40:04;;;;;;;10.35;2.10;;;42.00;35.10;;;;;;7386059;19;20003;-74
2023/07/18 17:42:33;;;;;;;12.20;2.22;;;41.90;35.50;;;;;;7386671;19;20011;-72
2023/07/18 17:45:01;;;;;;;6.22;1.83;;;41.90;35.00;;;;;;7381114;19;20020;-72
2023/07/18 17:47:33;;;;;;;6.28;1.88;;;42.00;35.00;;;;;;7379644;19;20023;-73
2023/07/18 17:50:05;;;;;;;6.25;2.15;;;42.00;34.80;;;;;;7401652;19;20062;-72
2023/07/18 17:52:34;;;;;;;6.18;2.00;;;42.10;36.10;;;;;;7387528;19;20065;-73
2023/07/18 17:55:04;;;;;;;8.05;2.40;;;42.10;36.60;;;;;;7383858;19;20006;-73
2023/07/18 17:57:33;;;;;;;5.07;1.80;;;42.00;37.00;;;;;;7382165;19;20264;-73
2023/07/18 18:00:01;;;;;;;5.25;2.03;;;41.90;35.80;;;;;;7380354;19;20019;-72
2023/07/18 18:02:30;;;;;;;4.80;1.85;;;41.80;37.50;;;;;;7380030;19;20015;-73
2023/07/18 18:04:59;;;;;;;5.05;2.20;;;41.80;37.50;;;;;;7401578;19;20345;-73
2023/07/18 18:07:32;;;;;;;3.78;1.88;;;41.80;37.60;;;;;;7382350;19;20067;-72
2023/07/18 18:10:01;;;;;;;8.20;2.03;;;41.60;37.20;;;;;;7383270;19;20043;-72
2023/07/18 18:12:31;;;;;;;6.63;2.10;;;41.40;37.50;;;;;;7382913;19;20003;-73
2023/07/18 18:15:00;;;;;;;14.30;2.15;;;41.10;38.50;;;;;;7382068;19;20417;-73
2023/07/18 18:17:28;;;;;;;8.60;2.05;;;40.80;38.10;;;;;;7379813;19;20011;-73
2023/07/18 18:19:57;;;;;;;7.53;2.30;;;40.70;38.20;;;;;;7403520;19;20002;-73
2023/07/18 18:22:26;;;;;;;11.75;2.20;;;40.60;39.10;;;;;;7380632;19;20070;-73
2023/07/18 18:24:57;;;;;;;4.68;1.90;;;40.40;38.20;;;;;;7379438;19;20612;-73
2023/07/18 18:27:26;;;;;;;8.75;1.85;;;40.40;38.70;;;;;;7379603;19;20073;-73
2023/07/18 18:29:54;;;;;;;5.22;2.25;;;40.20;39.40;;;;;;7380453;19;20007;-74
2023/07/18 18:32:23;;;;;;;5.40;2.13;;;40.10;39.90;;;;;;7379604;19;20031;-72
2023/07/18 18:34:52;;;;;;;9.65;1.90;;;39.70;40.00;;;;;;7401673;19;20122;-72
2023/07/18 18:37:21;;;;;;;6.85;2.10;;;39.30;40.50;;;;;;7380533;19;20069;-72
2023/07/18 18:39:49;;;;;;;7.05;1.92;;;38.90;41.10;;;;;;7378788;19;20019;-73
2023/07/18 18:42:21;;;;;;;3.35;1.70;;;38.40;41.80;;;;;;7380290;19;20010;-72
2023/07/18 18:44:49;;;;;;;6.43;1.92;;;38.10;42.10;;;;;;7378969;19;20019;-73
2023/07/18 18:47:18;;;;;;;7.00;2.22;;;37.80;42.80;;;;;;7401676;19;20018;-72
2023/07/18 18:49:47;;;;;;;5.25;2.20;;;37.50;43.60;;;;;;7379595;19;20362;-73
2023/07/18 18:52:16;;;;;;;3.78;2.00;;;37.20;44.10;;;;;;7378880;19;19999;-72
2023/07/18 18:54:45;;;;;;;8.50;2.28;;;36.90;44.70;;;;;;7379726;19;20007;-72
2023/07/18 18:57:14;;;;;;;6.07;2.03;;;36.50;45.10;;;;;;7378526;19;20070;-72
2023/07/18 18:59:47;;;;;;;8.20;2.15;;;36.10;45.60;;;;;;7377380;19;20006;-72
2023/07/18 19:02:18;;;;;;;7.47;2.22;;;35.60;46.10;;;;;;7400107;19;20027;-72
2023/07/18 19:04:49;;;;;;;5.30;2.17;;;35.10;46.80;;;;;;7380869;19;20224;-72
2023/07/18 19:07:19;;;;;;;;;;;34.60;47.30;;;;;;7380824;19;19999;-72
2023/07/18 19:09:48;;;;;;;4.75;2.15;;;34.00;47.90;;;;;;7379046;19;19911;-72
2023/07/18 19:12:17;;;;;;;5.90;1.60;;;33.40;48.60;;;;;;7379090;19;20469;-72
2023/07/18 19:14:48;;;;;;;5.53;1.77;;;32.80;49.00;;;;;;7380737;19;20019;-71
2023/07/18 19:17:17;;;;;;;12.70;2.30;;;32.30;48.80;;;;;;7409554;19;20342;-72
2023/07/18 19:19:46;;;;;;;5.10;2.03;;;31.80;49.50;;;;;;7387280;19;20230;-71
2023/07/18 19:22:15;;;;;;;7.90;2.20;;;31.40;50.60;;;;;;7384841;19;20022;-72
2023/07/18 19:24:44;;;;;;;5.30;2.13;;;31.00;50.80;;;;;;7385362;19;20276;-72
2023/07/18 19:27:13;;;;;;;3.53;2.20;;;30.70;51.40;;;;;;7384382;19;20094;-73
2023/07/18 19:29:44;;;;;;;4.10;2.10;;;30.50;51.60;;;;;;7385503;19;20007;-72
2023/07/18 19:32:15;;;;;;;3.88;2.10;;;30.20;52.00;;;;;;7407220;19;20011;-72
2023/07/18 19:34:45;;;;;;;4.38;1.92;;;29.90;52.40;;;;;;7389040;19;20002;-73
2023/07/18 19:37:13;;;;;;;4.28;1.83;;;29.70;52.90;;;;;;7383880;19;20018;-72
2023/07/18 19:39:42;;;;;;;5.63;2.30;;;29.50;53.20;;;;;;7384049;19;20007;-72
2023/07/18 19:42:11;;;;;;;4.65;2.15;;;29.40;53.70;;;;;;7384535;19;20011;-72
2023/07/18 19:44:39;;;;;;;6.22;1.90;;;29.30;53.60;;;;;;7384603;19;20265;-72
2023/07/18 19:47:08;;;;;;;8.38;2.08;;;29.10;53.60;;;;;;7404141;19;20010;-73
2023/07/18 19:49:40;;;;;;;11.15;2.30;;;29.00;53.70;;;;;;7384726;19;20022;-75
2023/07/18 19:52:47;;;;;;;7.72;2.42;;;28.90;53.90;;;;;;7388298;19;20019;-82
2023/07/18 19:55:19;;;;;;;8.60;2.42;;;28.70;54.10;;;;;;7399039;19;20075;-81
2023/07/18 19:57:48;;;;;;;5.43;2.22;;;28.70;54.30;;;;;;7404239;19;20018;-81
2023/07/18 20:00:17;;;;;;;7.68;2.00;;;28.60;54.50;;;;;;7391716;19;20007;-81
2023/07/18 20:02:51;;;;;;;15.23;2.50;;;28.50;54.70;;;;;;7390017;19;20055;-82
2023/07/18 20:05:30;;;;;;;10.13;2.35;;;28.40;54.80;;;;;;7402526;19;20027;-81
2023/07/18 20:08:10;;;;;;;7.05;2.40;;;28.40;55.00;;;;;;7412102;19;20027;-81
2023/07/18 20:10:39;;;;;;;4.90;2.28;;;28.30;55.20;;;;;;7392307;19;20019;-81
2023/07/18 20:13:10;;;;;;;6.03;2.13;;;28.20;55.40;;;;;;7391008;19;20262;-82
2023/07/18 20:15:39;;;;;;;7.43;2.33;;;28.20;55.60;;;;;;7389509;19;20007;-81